sensor_id;sensor_type;location;lat;lon;timestamp;P1;durP1;ratioP1;P2;durP2;ratioP2
19969;SDS011;10146;47.754;9.566;2023-03-01T00:01:25;25.77;;;21.17;;
19969;SDS011;10146;47.754;9.566;2023-03-01T00:03:52;26.95;;;22.27;;
19969;SDS011;10146;47.754;9.566;2023-03-01T00:06:18;26.25;;;22.30;;
19969;SDS011;10146;47.754;9.566;2023-03-01T00:08:44;24.98;;;21.52;;
19969;SDS011;10146;47.754;9.566;2023-03-01T00:11:21;25.02;;;21.80;;
19969;SDS011;10146;47.754;9.566;2023-03-01T00:13:49;27.00;;;22.17;;
19969;SDS011;10146;47.754;9.566;2023-03-01T00:16:21;25.73;;;21.45;;
19969;SDS011;10146;47.754;9.566;2023-03-01T00:18:48;27.30;;;21.88;;
19969;SDS011;10146;47.754;9.566;2023-03-01T00:21:15;27.27;;;21.77;;
19969;SDS011;10146;47.754;9.566;2023-03-01T00:23:41;26.35;;;21.80;;
19969;SDS011;10146;47.754;9.566;2023-03-01T00:26:08;25.60;;;21.33;;
19969;SDS011;10146;47.754;9.566;2023-03-01T00:28:35;25.73;;;21.27;;
19969;SDS011;10146;47.754;9.566;2023-03-01T00:31:03;26.63;;;22.20;;
19969;SDS011;10146;47.754;9.566;2023-03-01T00:33:33;26.42;;;21.75;;
19969;SDS011;10146;47.754;9.566;2023-03-01T00:35:59;24.38;;;21.02;;
19969;SDS011;10146;47.754;9.566;2023-03-01T00:38:28;26.38;;;21.38;;
19969;SDS011;10146;47.754;9.566;2023-03-01T00:40:54;27.15;;;22.23;;
19969;SDS011;10146;47.754;9.566;2023-03-01T00:43:19;27.27;;;22.10;;
19969;SDS011;10146;47.754;9.566;2023-03-01T00:45:45;24.38;;;20.35;;
19969;SDS011;10146;47.754;9.566;2023-03-01T00:48:11;25.05;;;21.00;;
19969;SDS011;10146;47.754;9.566;2023-03-01T00:50:36;26.13;;;21.92;;
19969;SDS011;10146;47.754;9.566;2023-03-01T00:53:02;24.20;;;21.50;;
19969;SDS011;10146;47.754;9.566;2023-03-01T00:55:28;24.52;;;21.45;;
19969;SDS011;10146;47.754;9.566;2023-03-01T00:57:53;24.80;;;21.40;;
19969;SDS011;10146;47.754;9.566;2023-03-01T01:00:19;24.35;;;19.75;;
19969;SDS011;10146;47.754;9.566;2023-03-01T01:02:45;26.67;;;21.13;;
19969;SDS011;10146;47.754;9.566;2023-03-01T01:05:11;25.42;;;20.27;;
19969;SDS011;10146;47.754;9.566;2023-03-01T01:07:37;23.63;;;20.75;;
19969;SDS011;10146;47.754;9.566;2023-03-01T01:10:03;25.67;;;21.15;;
19969;SDS011;10146;47.754;9.566;2023-03-01T01:12:30;26.48;;;21.48;;
19969;SDS011;10146;47.754;9.566;2023-03-01T01:14:55;25.95;;;21.02;;
19969;SDS011;10146;47.754;9.566;2023-03-01T01:17:21;24.05;;;20.20;;
19969;SDS011;10146;47.754;9.566;2023-03-01T01:19:47;26.00;;;20.98;;
19969;SDS011;10146;47.754;9.566;2023-03-01T01:22:12;23.90;;;19.75;;
19969;SDS011;10146;47.754;9.566;2023-03-01T01:24:38;24.73;;;20.45;;
19969;SDS011;10146;47.754;9.566;2023-03-01T01:27:04;26.10;;;21.30;;
19969;SDS011;10146;47.754;9.566;2023-03-01T01:29:31;25.05;;;21.00;;
19969;SDS011;10146;47.754;9.566;2023-03-01T01:31:56;28.35;;;21.33;;
19969;SDS011;10146;47.754;9.566;2023-03-01T01:34:22;25.92;;;21.70;;
19969;SDS011;10146;47.754;9.566;2023-03-01T01:36:51;25.83;;;22.58;;
19969;SDS011;10146;47.754;9.566;2023-03-01T01:39:21;26.15;;;21.42;;
19969;SDS011;10146;47.754;9.566;2023-03-01T01:41:47;26.33;;;22.25;;
19969;SDS011;10146;47.754;9.566;2023-03-01T01:46:41;26.77;;;22.17;;
19969;SDS011;10146;47.754;9.566;2023-03-01T01:49:16;27.33;;;22.27;;
19969;SDS011;10146;47.754;9.566;2023-03-01T01:51:55;26.48;;;21.33;;
19969;SDS011;10146;47.754;9.566;2023-03-01T01:54:28;27.45;;;22.63;;
19969;SDS011;10146;47.754;9.566;2023-03-01T01:57:14;27.98;;;22.50;;
19969;SDS011;10146;47.754;9.566;2023-03-01T01:59:45;27.75;;;22.45;;
19969;SDS011;10146;47.754;9.566;2023-03-01T02:02:21;27.52;;;22.92;;
19969;SDS011;10146;47.754;9.566;2023-03-01T02:04:47;28.85;;;23.20;;
19969;SDS011;10146;47.754;9.566;2023-03-01T02:07:16;29.35;;;23.35;;
19969;SDS011;10146;47.754;9.566;2023-03-01T02:09:46;28.80;;;23.05;;
19969;SDS011;10146;47.754;9.566;2023-03-01T02:12:15;29.77;;;22.73;;
19969;SDS011;10146;47.754;9.566;2023-03-01T02:14:44;27.73;;;22.77;;
19969;SDS011;10146;47.754;9.566;2023-03-01T02:17:10;30.95;;;24.30;;
19969;SDS011;10146;47.754;9.566;2023-03-01T02:22:23;29.30;;;22.95;;
19969;SDS011;10146;47.754;9.566;2023-03-01T02:27:26;32.00;;;24.80;;
19969;SDS011;10146;47.754;9.566;2023-03-01T02:30:01;31.80;;;24.80;;
19969;SDS011;10146;47.754;9.566;2023-03-01T02:32:27;30.48;;;24.70;;
19969;SDS011;10146;47.754;9.566;2023-03-01T02:34:54;30.60;;;23.77;;
19969;SDS011;10146;47.754;9.566;2023-03-01T02:37:21;32.22;;;24.55;;
19969;SDS011;10146;47.754;9.566;2023-03-01T02:39:51;30.52;;;24.70;;
19969;SDS011;10146;47.754;9.566;2023-03-01T02:42:24;31.42;;;24.90;;
19969;SDS011;10146;47.754;9.566;2023-03-01T02:44:55;29.98;;;24.23;;
19969;SDS011;10146;47.754;9.566;2023-03-01T02:47:21;30.48;;;24.35;;
19969;SDS011;10146;47.754;9.566;2023-03-01T02:49:46;30.92;;;24.45;;
19969;SDS011;10146;47.754;9.566;2023-03-01T02:55:09;33.03;;;25.10;;
19969;SDS011;10146;47.754;9.566;2023-03-01T02:57:38;31.77;;;25.13;;
19969;SDS011;10146;47.754;9.566;2023-03-01T03:00:08;31.75;;;24.58;;
19969;SDS011;10146;47.754;9.566;2023-03-01T03:02:43;30.48;;;23.90;;
19969;SDS011;10146;47.754;9.566;2023-03-01T03:05:15;30.73;;;23.88;;
19969;SDS011;10146;47.754;9.566;2023-03-01T03:07:43;31.70;;;24.90;;
19969;SDS011;10146;47.754;9.566;2023-03-01T03:10:20;31.80;;;24.83;;
19969;SDS011;10146;47.754;9.566;2023-03-01T03:12:52;30.88;;;24.33;;
19969;SDS011;10146;47.754;9.566;2023-03-01T03:15:22;33.25;;;24.30;;
19969;SDS011;10146;47.754;9.566;2023-03-01T03:17:49;27.45;;;21.75;;
19969;SDS011;10146;47.754;9.566;2023-03-01T03:20:17;28.52;;;22.27;;
19969;SDS011;10146;47.754;9.566;2023-03-01T03:22:48;26.92;;;21.35;;
19969;SDS011;10146;47.754;9.566;2023-03-01T03:25:19;27.33;;;21.73;;
19969;SDS011;10146;47.754;9.566;2023-03-01T03:27:46;27.45;;;21.70;;
19969;SDS011;10146;47.754;9.566;2023-03-01T03:30:14;27.42;;;21.52;;
19969;SDS011;10146;47.754;9.566;2023-03-01T03:32:42;24.48;;;20.50;;
19969;SDS011;10146;47.754;9.566;2023-03-01T03:35:17;27.15;;;22.20;;
19969;SDS011;10146;47.754;9.566;2023-03-01T03:38:04;27.90;;;21.90;;
19969;SDS011;10146;47.754;9.566;2023-03-01T03:40:35;25.75;;;20.52;;
19969;SDS011;10146;47.754;9.566;2023-03-01T03:43:04;26.30;;;22.15;;
19969;SDS011;10146;47.754;9.566;2023-03-01T03:45:31;27.00;;;21.48;;
19969;SDS011;10146;47.754;9.566;2023-03-01T03:47:58;28.17;;;22.75;;
19969;SDS011;10146;47.754;9.566;2023-03-01T03:50:25;28.15;;;22.42;;
19969;SDS011;10146;47.754;9.566;2023-03-01T03:52:51;27.90;;;21.60;;
19969;SDS011;10146;47.754;9.566;2023-03-01T03:55:16;26.55;;;22.35;;
19969;SDS011;10146;47.754;9.566;2023-03-01T03:57:44;30.40;;;23.77;;
19969;SDS011;10146;47.754;9.566;2023-03-01T04:00:17;28.45;;;23.02;;
19969;SDS011;10146;47.754;9.566;2023-03-01T04:02:45;28.63;;;22.25;;
19969;SDS011;10146;47.754;9.566;2023-03-01T04:05:12;28.83;;;22.60;;
19969;SDS011;10146;47.754;9.566;2023-03-01T04:07:42;27.95;;;22.40;;
19969;SDS011;10146;47.754;9.566;2023-03-01T04:10:12;28.75;;;22.60;;
19969;SDS011;10146;47.754;9.566;2023-03-01T04:12:41;29.45;;;23.27;;
19969;SDS011;10146;47.754;9.566;2023-03-01T04:15:08;31.13;;;23.92;;
19969;SDS011;10146;47.754;9.566;2023-03-01T04:17:41;28.05;;;22.50;;
19969;SDS011;10146;47.754;9.566;2023-03-01T04:20:15;31.05;;;23.88;;
19969;SDS011;10146;47.754;9.566;2023-03-01T04:22:43;32.42;;;24.77;;
19969;SDS011;10146;47.754;9.566;2023-03-01T04:25:11;31.23;;;24.92;;
19969;SDS011;10146;47.754;9.566;2023-03-01T04:27:39;32.60;;;24.73;;
19969;SDS011;10146;47.754;9.566;2023-03-01T04:30:05;30.75;;;24.02;;
19969;SDS011;10146;47.754;9.566;2023-03-01T04:32:31;34.47;;;25.65;;
19969;SDS011;10146;47.754;9.566;2023-03-01T04:34:57;33.95;;;25.40;;
19969;SDS011;10146;47.754;9.566;2023-03-01T04:37:23;30.52;;;24.25;;
19969;SDS011;10146;47.754;9.566;2023-03-01T04:39:49;31.58;;;23.85;;
19969;SDS011;10146;47.754;9.566;2023-03-01T04:42:14;30.55;;;24.42;;
19969;SDS011;10146;47.754;9.566;2023-03-01T04:44:41;33.17;;;25.25;;
19969;SDS011;10146;47.754;9.566;2023-03-01T04:47:07;31.42;;;25.10;;
19969;SDS011;10146;47.754;9.566;2023-03-01T04:49:33;30.50;;;23.90;;
19969;SDS011;10146;47.754;9.566;2023-03-01T04:51:58;30.98;;;24.45;;
19969;SDS011;10146;47.754;9.566;2023-03-01T04:54:27;32.70;;;24.65;;
19969;SDS011;10146;47.754;9.566;2023-03-01T04:56:53;34.38;;;25.08;;
19969;SDS011;10146;47.754;9.566;2023-03-01T04:59:19;32.38;;;24.83;;
19969;SDS011;10146;47.754;9.566;2023-03-01T05:01:49;33.40;;;25.08;;
19969;SDS011;10146;47.754;9.566;2023-03-01T05:04:15;34.00;;;25.58;;
19969;SDS011;10146;47.754;9.566;2023-03-01T05:06:40;35.25;;;24.48;;
19969;SDS011;10146;47.754;9.566;2023-03-01T05:09:06;33.45;;;25.10;;
19969;SDS011;10146;47.754;9.566;2023-03-01T05:11:32;30.20;;;24.35;;
19969;SDS011;10146;47.754;9.566;2023-03-01T05:14:01;32.80;;;24.98;;
19969;SDS011;10146;47.754;9.566;2023-03-01T05:16:27;31.80;;;24.85;;
19969;SDS011;10146;47.754;9.566;2023-03-01T05:18:53;30.38;;;24.05;;
19969;SDS011;10146;47.754;9.566;2023-03-01T05:21:20;32.75;;;25.13;;
19969;SDS011;10146;47.754;9.566;2023-03-01T05:23:46;33.65;;;25.60;;
19969;SDS011;10146;47.754;9.566;2023-03-01T05:26:12;32.88;;;24.90;;
19969;SDS011;10146;47.754;9.566;2023-03-01T05:28:38;31.73;;;25.02;;
19969;SDS011;10146;47.754;9.566;2023-03-01T05:31:05;32.40;;;24.63;;
19969;SDS011;10146;47.754;9.566;2023-03-01T05:33:34;33.22;;;25.00;;
19969;SDS011;10146;47.754;9.566;2023-03-01T05:36:07;33.45;;;26.17;;
19969;SDS011;10146;47.754;9.566;2023-03-01T05:38:34;33.33;;;24.98;;
19969;SDS011;10146;47.754;9.566;2023-03-01T05:41:01;30.00;;;24.05;;
19969;SDS011;10146;47.754;9.566;2023-03-01T05:43:29;32.35;;;24.88;;
19969;SDS011;10146;47.754;9.566;2023-03-01T05:45:57;34.72;;;25.70;;
19969;SDS011;10146;47.754;9.566;2023-03-01T05:48:22;36.03;;;25.63;;
19969;SDS011;10146;47.754;9.566;2023-03-01T05:50:48;32.13;;;24.25;;
19969;SDS011;10146;47.754;9.566;2023-03-01T05:53:17;30.40;;;24.40;;
19969;SDS011;10146;47.754;9.566;2023-03-01T05:55:46;30.83;;;24.52;;
19969;SDS011;10146;47.754;9.566;2023-03-01T05:58:16;32.25;;;25.63;;
19969;SDS011;10146;47.754;9.566;2023-03-01T06:00:46;33.50;;;25.10;;
19969;SDS011;10146;47.754;9.566;2023-03-01T06:03:14;37.10;;;28.13;;
19969;SDS011;10146;47.754;9.566;2023-03-01T06:05:41;33.92;;;25.52;;
19969;SDS011;10146;47.754;9.566;2023-03-01T06:08:08;33.63;;;25.75;;
19969;SDS011;10146;47.754;9.566;2023-03-01T06:10:35;30.23;;;23.35;;
19969;SDS011;10146;47.754;9.566;2023-03-01T06:13:00;30.63;;;23.67;;
19969;SDS011;10146;47.754;9.566;2023-03-01T06:15:26;34.92;;;25.10;;
19969;SDS011;10146;47.754;9.566;2023-03-01T06:17:53;32.70;;;25.20;;
19969;SDS011;10146;47.754;9.566;2023-03-01T06:20:23;32.65;;;24.30;;
19969;SDS011;10146;47.754;9.566;2023-03-01T06:22:50;32.03;;;23.92;;
19969;SDS011;10146;47.754;9.566;2023-03-01T06:25:17;33.80;;;25.67;;
19969;SDS011;10146;47.754;9.566;2023-03-01T06:27:45;35.85;;;24.77;;
19969;SDS011;10146;47.754;9.566;2023-03-01T06:30:12;33.20;;;24.67;;
19969;SDS011;10146;47.754;9.566;2023-03-01T06:32:39;32.60;;;24.45;;
19969;SDS011;10146;47.754;9.566;2023-03-01T06:35:12;35.72;;;26.23;;
19969;SDS011;10146;47.754;9.566;2023-03-01T06:37:39;34.47;;;25.00;;
19969;SDS011;10146;47.754;9.566;2023-03-01T06:40:06;33.67;;;24.60;;
19969;SDS011;10146;47.754;9.566;2023-03-01T06:42:34;34.33;;;24.63;;
19969;SDS011;10146;47.754;9.566;2023-03-01T06:45:00;35.47;;;24.33;;
19969;SDS011;10146;47.754;9.566;2023-03-01T06:47:26;33.90;;;24.27;;
19969;SDS011;10146;47.754;9.566;2023-03-01T06:49:51;35.03;;;24.67;;
19969;SDS011;10146;47.754;9.566;2023-03-01T06:52:17;33.80;;;24.52;;
19969;SDS011;10146;47.754;9.566;2023-03-01T06:54:42;34.03;;;25.67;;
19969;SDS011;10146;47.754;9.566;2023-03-01T06:57:08;30.77;;;24.08;;
19969;SDS011;10146;47.754;9.566;2023-03-01T06:59:33;32.80;;;24.35;;
19969;SDS011;10146;47.754;9.566;2023-03-01T07:01:59;33.13;;;23.45;;
19969;SDS011;10146;47.754;9.566;2023-03-01T07:04:25;31.58;;;23.05;;
19969;SDS011;10146;47.754;9.566;2023-03-01T07:06:53;31.20;;;23.35;;
19969;SDS011;10146;47.754;9.566;2023-03-01T07:09:20;31.63;;;24.02;;
19969;SDS011;10146;47.754;9.566;2023-03-01T07:11:47;30.20;;;23.75;;
19969;SDS011;10146;47.754;9.566;2023-03-01T07:14:13;29.50;;;23.25;;
19969;SDS011;10146;47.754;9.566;2023-03-01T07:16:39;33.22;;;24.17;;
19969;SDS011;10146;47.754;9.566;2023-03-01T07:19:04;32.42;;;23.48;;
19969;SDS011;10146;47.754;9.566;2023-03-01T07:21:30;31.40;;;24.13;;
19969;SDS011;10146;47.754;9.566;2023-03-01T07:23:56;31.33;;;23.00;;
19969;SDS011;10146;47.754;9.566;2023-03-01T07:26:21;29.50;;;22.00;;
19969;SDS011;10146;47.754;9.566;2023-03-01T07:28:47;31.50;;;23.33;;
19969;SDS011;10146;47.754;9.566;2023-03-01T07:31:13;32.08;;;23.42;;
19969;SDS011;10146;47.754;9.566;2023-03-01T07:33:38;31.05;;;23.58;;
19969;SDS011;10146;47.754;9.566;2023-03-01T07:36:04;32.83;;;23.85;;
19969;SDS011;10146;47.754;9.566;2023-03-01T07:38:31;31.58;;;23.52;;
19969;SDS011;10146;47.754;9.566;2023-03-01T07:40:57;32.03;;;24.10;;
19969;SDS011;10146;47.754;9.566;2023-03-01T07:43:25;31.30;;;24.35;;
19969;SDS011;10146;47.754;9.566;2023-03-01T07:45:51;30.50;;;23.25;;
19969;SDS011;10146;47.754;9.566;2023-03-01T07:48:17;33.47;;;24.77;;
19969;SDS011;10146;47.754;9.566;2023-03-01T07:50:42;31.77;;;23.77;;
19969;SDS011;10146;47.754;9.566;2023-03-01T07:53:08;29.33;;;22.65;;
19969;SDS011;10146;47.754;9.566;2023-03-01T07:55:35;29.50;;;23.80;;
19969;SDS011;10146;47.754;9.566;2023-03-01T07:58:01;32.55;;;23.70;;
19969;SDS011;10146;47.754;9.566;2023-03-01T08:00:26;31.42;;;23.73;;
19969;SDS011;10146;47.754;9.566;2023-03-01T08:02:52;31.80;;;23.33;;
19969;SDS011;10146;47.754;9.566;2023-03-01T08:05:18;31.17;;;23.00;;
19969;SDS011;10146;47.754;9.566;2023-03-01T08:07:44;28.33;;;21.50;;
19969;SDS011;10146;47.754;9.566;2023-03-01T08:10:10;28.92;;;22.25;;
19969;SDS011;10146;47.754;9.566;2023-03-01T08:12:36;31.98;;;21.88;;
19969;SDS011;10146;47.754;9.566;2023-03-01T08:15:01;28.23;;;22.13;;
19969;SDS011;10146;47.754;9.566;2023-03-01T08:17:27;29.48;;;23.20;;
19969;SDS011;10146;47.754;9.566;2023-03-01T08:19:52;30.60;;;23.80;;
19969;SDS011;10146;47.754;9.566;2023-03-01T08:22:18;32.00;;;24.08;;
19969;SDS011;10146;47.754;9.566;2023-03-01T08:24:44;31.75;;;24.23;;
19969;SDS011;10146;47.754;9.566;2023-03-01T08:27:09;29.50;;;22.95;;
19969;SDS011;10146;47.754;9.566;2023-03-01T08:29:37;30.17;;;23.60;;
19969;SDS011;10146;47.754;9.566;2023-03-01T08:32:02;31.25;;;23.55;;
19969;SDS011;10146;47.754;9.566;2023-03-01T08:34:28;33.72;;;24.15;;
19969;SDS011;10146;47.754;9.566;2023-03-01T08:36:56;31.15;;;23.67;;
19969;SDS011;10146;47.754;9.566;2023-03-01T08:39:21;30.95;;;23.60;;
19969;SDS011;10146;47.754;9.566;2023-03-01T08:41:47;31.85;;;25.15;;
19969;SDS011;10146;47.754;9.566;2023-03-01T08:44:13;32.20;;;24.92;;
19969;SDS011;10146;47.754;9.566;2023-03-01T08:46:41;29.55;;;23.13;;
19969;SDS011;10146;47.754;9.566;2023-03-01T08:49:09;31.52;;;24.73;;
19969;SDS011;10146;47.754;9.566;2023-03-01T08:51:37;31.45;;;25.20;;
19969;SDS011;10146;47.754;9.566;2023-03-01T08:54:07;29.98;;;24.08;;
19969;SDS011;10146;47.754;9.566;2023-03-01T08:56:40;29.90;;;24.23;;
19969;SDS011;10146;47.754;9.566;2023-03-01T08:59:06;32.75;;;24.67;;
19969;SDS011;10146;47.754;9.566;2023-03-01T09:01:32;29.73;;;23.42;;
19969;SDS011;10146;47.754;9.566;2023-03-01T09:03:58;30.55;;;23.85;;
19969;SDS011;10146;47.754;9.566;2023-03-01T09:06:24;31.10;;;24.65;;
19969;SDS011;10146;47.754;9.566;2023-03-01T09:08:50;29.48;;;23.35;;
19969;SDS011;10146;47.754;9.566;2023-03-01T09:11:17;27.83;;;23.85;;
19969;SDS011;10146;47.754;9.566;2023-03-01T09:13:45;30.73;;;23.60;;
19969;SDS011;10146;47.754;9.566;2023-03-01T09:16:11;27.25;;;22.83;;
19969;SDS011;10146;47.754;9.566;2023-03-01T09:18:38;30.67;;;23.80;;
19969;SDS011;10146;47.754;9.566;2023-03-01T09:21:04;29.45;;;23.17;;
19969;SDS011;10146;47.754;9.566;2023-03-01T09:23:35;28.90;;;23.55;;
19969;SDS011;10146;47.754;9.566;2023-03-01T09:26:03;29.23;;;23.05;;
19969;SDS011;10146;47.754;9.566;2023-03-01T09:28:29;30.88;;;23.80;;
19969;SDS011;10146;47.754;9.566;2023-03-01T09:30:58;30.77;;;23.52;;
19969;SDS011;10146;47.754;9.566;2023-03-01T09:33:25;29.98;;;23.88;;
19969;SDS011;10146;47.754;9.566;2023-03-01T09:35:55;29.98;;;23.58;;
19969;SDS011;10146;47.754;9.566;2023-03-01T09:38:22;30.33;;;24.27;;
19969;SDS011;10146;47.754;9.566;2023-03-01T09:40:47;29.05;;;22.67;;
19969;SDS011;10146;47.754;9.566;2023-03-01T09:43:21;31.60;;;24.10;;
19969;SDS011;10146;47.754;9.566;2023-03-01T09:45:59;28.13;;;23.55;;
19969;SDS011;10146;47.754;9.566;2023-03-01T09:48:33;31.00;;;25.13;;
19969;SDS011;10146;47.754;9.566;2023-03-01T09:51:07;32.17;;;24.88;;
19969;SDS011;10146;47.754;9.566;2023-03-01T09:53:39;31.60;;;24.75;;
19969;SDS011;10146;47.754;9.566;2023-03-01T09:56:05;31.15;;;23.38;;
19969;SDS011;10146;47.754;9.566;2023-03-01T10:01:57;29.95;;;24.75;;
19969;SDS011;10146;47.754;9.566;2023-03-01T10:07:36;31.02;;;24.48;;
19969;SDS011;10146;47.754;9.566;2023-03-01T10:10:29;29.55;;;23.80;;
19969;SDS011;10146;47.754;9.566;2023-03-01T10:13:00;30.45;;;23.27;;
19969;SDS011;10146;47.754;9.566;2023-03-01T10:15:43;30.75;;;23.98;;
19969;SDS011;10146;47.754;9.566;2023-03-01T10:18:15;30.05;;;23.88;;
19969;SDS011;10146;47.754;9.566;2023-03-01T10:20:51;30.23;;;23.80;;
19969;SDS011;10146;47.754;9.566;2023-03-01T10:23:20;30.25;;;23.65;;
19969;SDS011;10146;47.754;9.566;2023-03-01T10:25:51;28.92;;;23.75;;
19969;SDS011;10146;47.754;9.566;2023-03-01T10:31:37;32.92;;;24.75;;
19969;SDS011;10146;47.754;9.566;2023-03-01T10:36:43;31.48;;;24.27;;
19969;SDS011;10146;47.754;9.566;2023-03-01T10:39:20;32.50;;;24.17;;
19969;SDS011;10146;47.754;9.566;2023-03-01T10:41:57;29.73;;;23.52;;
19969;SDS011;10146;47.754;9.566;2023-03-01T10:44:42;31.20;;;23.88;;
19969;SDS011;10146;47.754;9.566;2023-03-01T10:47:18;33.15;;;25.00;;
19969;SDS011;10146;47.754;9.566;2023-03-01T10:52:31;33.08;;;25.42;;
19969;SDS011;10146;47.754;9.566;2023-03-01T10:55:01;28.70;;;23.77;;
19969;SDS011;10146;47.754;9.566;2023-03-01T10:57:45;31.05;;;24.42;;
19969;SDS011;10146;47.754;9.566;2023-03-01T11:00:19;31.23;;;24.65;;
19969;SDS011;10146;47.754;9.566;2023-03-01T11:02:51;30.05;;;24.02;;
19969;SDS011;10146;47.754;9.566;2023-03-01T11:05:29;31.13;;;23.40;;
19969;SDS011;10146;47.754;9.566;2023-03-01T11:07:58;30.67;;;23.92;;
19969;SDS011;10146;47.754;9.566;2023-03-01T11:10:31;29.90;;;24.52;;
19969;SDS011;10146;47.754;9.566;2023-03-01T11:13:08;30.88;;;23.95;;
19969;SDS011;10146;47.754;9.566;2023-03-01T11:15:41;33.28;;;25.58;;
19969;SDS011;10146;47.754;9.566;2023-03-01T11:18:17;30.73;;;23.67;;
19969;SDS011;10146;47.754;9.566;2023-03-01T11:20:44;31.92;;;24.70;;
19969;SDS011;10146;47.754;9.566;2023-03-01T11:23:11;35.38;;;26.27;;
19969;SDS011;10146;47.754;9.566;2023-03-01T11:25:43;31.67;;;24.50;;
19969;SDS011;10146;47.754;9.566;2023-03-01T11:28:16;32.97;;;24.73;;
19969;SDS011;10146;47.754;9.566;2023-03-01T11:30:53;34.38;;;25.92;;
19969;SDS011;10146;47.754;9.566;2023-03-01T11:33:39;33.15;;;26.23;;
19969;SDS011;10146;47.754;9.566;2023-03-01T11:38:55;30.98;;;25.23;;
19969;SDS011;10146;47.754;9.566;2023-03-01T11:41:23;31.08;;;25.42;;
19969;SDS011;10146;47.754;9.566;2023-03-01T11:43:56;33.17;;;25.45;;
19969;SDS011;10146;47.754;9.566;2023-03-01T12:07:07;28.65;;;22.63;;
19969;SDS011;10146;47.754;9.566;2023-03-01T12:09:33;31.20;;;24.02;;
19969;SDS011;10146;47.754;9.566;2023-03-01T12:12:07;28.90;;;23.48;;
19969;SDS011;10146;47.754;9.566;2023-03-01T12:28:38;27.15;;;22.05;;
19969;SDS011;10146;47.754;9.566;2023-03-01T12:34:13;29.10;;;22.92;;
19969;SDS011;10146;47.754;9.566;2023-03-01T12:37:08;28.35;;;22.17;;
19969;SDS011;10146;47.754;9.566;2023-03-01T12:51:20;28.08;;;21.10;;
19969;SDS011;10146;47.754;9.566;2023-03-01T12:53:50;27.67;;;21.17;;
19969;SDS011;10146;47.754;9.566;2023-03-01T12:56:22;25.15;;;20.23;;
19969;SDS011;10146;47.754;9.566;2023-03-01T13:04:20;26.30;;;20.77;;
19969;SDS011;10146;47.754;9.566;2023-03-01T13:07:19;26.80;;;20.95;;
19969;SDS011;10146;47.754;9.566;2023-03-01T13:17:47;26.45;;;21.20;;
19969;SDS011;10146;47.754;9.566;2023-03-01T13:20:18;26.20;;;19.67;;
19969;SDS011;10146;47.754;9.566;2023-03-01T13:22:46;25.35;;;20.02;;
19969;SDS011;10146;47.754;9.566;2023-03-01T13:27:40;26.20;;;20.67;;
19969;SDS011;10146;47.754;9.566;2023-03-01T13:30:37;28.08;;;21.00;;
19969;SDS011;10146;47.754;9.566;2023-03-01T13:35:52;28.30;;;22.15;;
19969;SDS011;10146;47.754;9.566;2023-03-01T13:41:17;25.75;;;21.05;;
19969;SDS011;10146;47.754;9.566;2023-03-01T13:46:49;26.67;;;20.40;;
19969;SDS011;10146;47.754;9.566;2023-03-01T13:49:17;24.50;;;19.77;;
19969;SDS011;10146;47.754;9.566;2023-03-01T13:51:51;23.00;;;19.38;;
19969;SDS011;10146;47.754;9.566;2023-03-01T13:54:21;26.45;;;19.77;;
19969;SDS011;10146;47.754;9.566;2023-03-01T13:56:54;24.55;;;19.85;;
19969;SDS011;10146;47.754;9.566;2023-03-01T13:59:21;24.17;;;20.65;;
19969;SDS011;10146;47.754;9.566;2023-03-01T14:01:53;27.17;;;21.55;;
19969;SDS011;10146;47.754;9.566;2023-03-01T14:04:25;26.75;;;20.75;;
19969;SDS011;10146;47.754;9.566;2023-03-01T14:06:52;26.88;;;20.10;;
19969;SDS011;10146;47.754;9.566;2023-03-01T14:09:33;26.00;;;21.10;;
19969;SDS011;10146;47.754;9.566;2023-03-01T14:12:06;27.13;;;20.42;;
19969;SDS011;10146;47.754;9.566;2023-03-01T14:20:17;22.73;;;19.45;;
19969;SDS011;10146;47.754;9.566;2023-03-01T14:22:55;23.25;;;19.42;;
19969;SDS011;10146;47.754;9.566;2023-03-01T14:25:31;26.60;;;20.45;;
19969;SDS011;10146;47.754;9.566;2023-03-01T14:28:02;26.80;;;21.25;;
19969;SDS011;10146;47.754;9.566;2023-03-01T14:30:40;23.70;;;18.83;;
19969;SDS011;10146;47.754;9.566;2023-03-01T14:33:21;22.52;;;19.27;;
19969;SDS011;10146;47.754;9.566;2023-03-01T14:35:53;24.77;;;19.98;;
19969;SDS011;10146;47.754;9.566;2023-03-01T14:38:35;23.90;;;18.95;;
19969;SDS011;10146;47.754;9.566;2023-03-01T14:41:03;22.60;;;19.42;;
19969;SDS011;10146;47.754;9.566;2023-03-01T14:43:41;27.60;;;21.92;;
19969;SDS011;10146;47.754;9.566;2023-03-01T14:46:24;28.08;;;23.27;;
19969;SDS011;10146;47.754;9.566;2023-03-01T14:48:55;32.65;;;25.35;;
19969;SDS011;10146;47.754;9.566;2023-03-01T14:51:26;28.92;;;23.70;;
19969;SDS011;10146;47.754;9.566;2023-03-01T14:53:52;30.45;;;23.38;;
19969;SDS011;10146;47.754;9.566;2023-03-01T14:56:18;32.28;;;24.08;;
19969;SDS011;10146;47.754;9.566;2023-03-01T14:58:44;35.78;;;25.40;;
19969;SDS011;10146;47.754;9.566;2023-03-01T15:01:13;33.85;;;26.27;;
19969;SDS011;10146;47.754;9.566;2023-03-01T15:03:47;32.72;;;24.60;;
19969;SDS011;10146;47.754;9.566;2023-03-01T15:06:15;33.08;;;25.13;;
19969;SDS011;10146;47.754;9.566;2023-03-01T15:08:50;30.92;;;24.30;;
19969;SDS011;10146;47.754;9.566;2023-03-01T15:11:26;32.75;;;24.33;;
19969;SDS011;10146;47.754;9.566;2023-03-01T15:13:56;29.83;;;24.75;;
19969;SDS011;10146;47.754;9.566;2023-03-01T15:16:30;32.20;;;24.45;;
19969;SDS011;10146;47.754;9.566;2023-03-01T15:21:32;32.10;;;25.73;;
19969;SDS011;10146;47.754;9.566;2023-03-01T15:26:45;32.85;;;24.23;;
19969;SDS011;10146;47.754;9.566;2023-03-01T15:29:19;33.55;;;24.98;;
19969;SDS011;10146;47.754;9.566;2023-03-01T15:31:54;29.88;;;23.60;;
19969;SDS011;10146;47.754;9.566;2023-03-01T15:34:32;32.53;;;24.38;;
19969;SDS011;10146;47.754;9.566;2023-03-01T15:37:00;31.52;;;23.92;;
19969;SDS011;10146;47.754;9.566;2023-03-01T15:39:40;31.15;;;24.20;;
19969;SDS011;10146;47.754;9.566;2023-03-01T15:42:11;31.02;;;23.83;;
19969;SDS011;10146;47.754;9.566;2023-03-01T15:45:07;31.52;;;23.98;;
19969;SDS011;10146;47.754;9.566;2023-03-01T15:47:53;31.85;;;23.92;;
19969;SDS011;10146;47.754;9.566;2023-03-01T15:50:27;32.42;;;25.50;;
19969;SDS011;10146;47.754;9.566;2023-03-01T15:52:54;30.38;;;23.63;;
19969;SDS011;10146;47.754;9.566;2023-03-01T15:55:27;29.83;;;23.70;;
19969;SDS011;10146;47.754;9.566;2023-03-01T15:57:58;30.17;;;23.55;;
19969;SDS011;10146;47.754;9.566;2023-03-01T16:00:25;30.67;;;23.23;;
19969;SDS011;10146;47.754;9.566;2023-03-01T16:02:51;28.90;;;21.88;;
19969;SDS011;10146;47.754;9.566;2023-03-01T16:07:42;27.35;;;21.42;;
19969;SDS011;10146;47.754;9.566;2023-03-01T16:10:08;29.63;;;23.10;;
19969;SDS011;10146;47.754;9.566;2023-03-01T16:12:34;29.38;;;22.77;;
19969;SDS011;10146;47.754;9.566;2023-03-01T16:14:59;33.83;;;24.17;;
19969;SDS011;10146;47.754;9.566;2023-03-01T16:17:25;28.83;;;23.85;;
19969;SDS011;10146;47.754;9.566;2023-03-01T16:19:51;30.55;;;23.67;;
19969;SDS011;10146;47.754;9.566;2023-03-01T16:22:16;31.75;;;24.00;;
19969;SDS011;10146;47.754;9.566;2023-03-01T16:24:42;34.72;;;24.80;;
19969;SDS011;10146;47.754;9.566;2023-03-01T16:27:07;33.03;;;23.92;;
19969;SDS011;10146;47.754;9.566;2023-03-01T16:29:33;32.40;;;24.85;;